createdAt,value
2023-02-14T00:02:54.405Z,29.90
2023-02-14T00:07:57.472Z,29.00
2023-02-14T00:13:04.414Z,23.40
2023-02-14T00:18:06.827Z,21.70
2023-02-14T00:23:08.753Z,28.30
2023-02-14T00:28:10.595Z,24.80
2023-02-14T00:33:12.526Z,21.90
2023-02-14T00:38:15.251Z,23.40
2023-02-14T00:43:17.392Z,23.30
2023-02-14T00:48:24.028Z,21.10
2023-02-14T00:53:26.067Z,20.30
2023-02-14T00:58:28.467Z,22.70
2023-02-14T01:03:30.447Z,23.90
2023-02-14T01:08:32.684Z,22.90
2023-02-14T01:13:35.221Z,21.90
2023-02-14T01:18:38.436Z,22.30
2023-02-14T01:23:40.931Z,20.30
2023-02-14T01:28:44.338Z,18.60
2023-02-14T01:33:48.923Z,20.90
2023-02-14T01:38:56.732Z,19.80
2023-02-14T01:44:05.724Z,20.80
2023-02-14T01:49:18.511Z,20.30
2023-02-14T01:54:24.190Z,18.80
2023-02-14T01:59:30.921Z,17.50
2023-02-14T02:04:37.043Z,19.80
2023-02-14T02:09:49.216Z,18.00
2023-02-14T02:14:54.694Z,21.30
2023-02-14T02:20:08.631Z,18.00
2023-02-14T02:25:44.382Z,18.10
2023-02-14T02:31:21.125Z,18.00
2023-02-14T02:36:29.577Z,15.00
2023-02-14T02:41:45.750Z,17.10
2023-02-14T02:47:19.356Z,15.00
2023-02-14T02:52:46.996Z,18.30
2023-02-14T02:57:51.243Z,19.00
2023-02-14T03:03:15.441Z,18.50
2023-02-14T03:08:17.921Z,19.30
2023-02-14T03:13:32.161Z,21.60
2023-02-14T03:18:54.526Z,21.90
2023-02-14T03:23:59.677Z,24.60
2023-02-14T03:29:02.583Z,22.60
2023-02-14T03:34:23.798Z,22.10
2023-02-14T03:40:02.321Z,21.70
2023-02-14T03:45:09.463Z,23.70
2023-02-14T03:50:18.964Z,23.10
2023-02-14T03:55:34.571Z,23.60
2023-02-14T04:00:41.125Z,22.80
2023-02-14T04:05:52.403Z,23.60
2023-02-14T04:10:58.355Z,23.40
2023-02-14T04:16:00.843Z,43.20
2023-02-14T04:21:06.215Z,23.60
2023-02-14T04:26:08.314Z,22.50
2023-02-14T04:31:11.416Z,23.00
2023-02-14T04:36:14.559Z,22.70
2023-02-14T04:41:16.691Z,22.50
2023-02-14T04:46:18.934Z,23.50
2023-02-14T04:51:21.012Z,22.50
2023-02-14T04:56:23.385Z,22.50
2023-02-14T05:01:25.408Z,20.00
2023-02-14T05:06:28.923Z,20.90
2023-02-14T05:11:31.107Z,21.60
2023-02-14T05:16:33.232Z,22.30
2023-02-14T05:21:35.182Z,26.80
2023-02-14T05:26:37.002Z,22.60
2023-02-14T05:31:39.654Z,23.30
2023-02-14T05:36:41.849Z,24.60
2023-02-14T05:41:43.714Z,22.30
2023-02-14T05:46:45.703Z,23.10
2023-02-14T05:51:47.723Z,23.20
2023-02-14T05:56:50.958Z,22.50
2023-02-14T06:01:54.194Z,19.20
2023-02-14T06:06:56.594Z,17.20
2023-02-14T06:11:59.045Z,21.90
2023-02-14T06:17:01.087Z,23.80
2023-02-14T06:22:04.085Z,25.20
2023-02-14T06:27:05.982Z,30.60
2023-02-14T06:32:08.061Z,24.90
2023-02-14T06:37:10.607Z,22.10
2023-02-14T06:42:12.483Z,23.30
2023-02-14T06:47:15.052Z,23.10
2023-02-14T06:52:17.145Z,20.20
2023-02-14T06:57:19.042Z,18.00
2023-02-14T07:02:23.512Z,19.70
2023-02-14T07:07:26.747Z,23.40
2023-02-14T07:12:28.827Z,24.80
2023-02-14T07:17:30.755Z,18.80
2023-02-14T07:22:34.050Z,19.80
2023-02-14T07:27:46.652Z,18.70
2023-02-14T07:32:49.737Z,20.00
2023-02-14T07:37:51.817Z,18.50
2023-02-14T07:42:56.320Z,16.30
2023-02-14T07:48:02.045Z,17.60
2023-02-14T07:53:05.462Z,19.10
2023-02-14T07:58:08.360Z,20.00
2023-02-14T08:03:10.308Z,17.60
2023-02-14T08:08:12.871Z,18.70
2023-02-14T08:13:16.155Z,17.70
2023-02-14T08:18:19.808Z,21.00
2023-02-14T08:23:22.352Z,19.00
2023-02-14T08:28:25.227Z,21.00
2023-02-14T08:33:27.524Z,17.40
2023-02-14T08:38:30.634Z,19.70
2023-02-14T08:43:34.386Z,18.60
2023-02-14T08:48:40.004Z,21.80
2023-02-14T08:53:44.470Z,19.40
2023-02-14T08:58:47.105Z,20.80
2023-02-14T09:03:49.823Z,19.00
2023-02-14T09:08:55.001Z,16.30
2023-02-14T09:13:57.441Z,16.20
2023-02-14T09:18:59.826Z,20.30
2023-02-14T09:24:01.975Z,14.20
2023-02-14T09:29:03.960Z,14.50
2023-02-14T09:34:09.738Z,19.10
2023-02-14T09:39:14.319Z,19.00
2023-02-14T09:44:40.879Z,14.20
2023-02-14T09:49:47.199Z,12.00
2023-02-14T09:55:04.382Z,15.00
2023-02-14T10:00:45.677Z,14.30
2023-02-14T10:06:10.227Z,13.50
2023-02-14T10:11:19.343Z,11.40
2023-02-14T10:16:32.493Z,12.90
2023-02-14T10:22:01.017Z,14.60
2023-02-14T10:27:31.987Z,14.30
2023-02-14T10:32:52.024Z,12.90
2023-02-14T10:38:19.103Z,13.00
2023-02-14T10:43:21.318Z,14.30
2023-02-14T10:48:43.833Z,16.00
2023-02-14T10:54:15.904Z,13.30
2023-02-14T10:59:38.314Z,12.60
2023-02-14T11:04:42.295Z,12.20
2023-02-14T11:09:44.855Z,12.60
2023-02-14T11:14:46.763Z,12.30
2023-02-14T11:20:06.765Z,13.70
2023-02-14T11:25:23.497Z,14.30
2023-02-14T11:30:35.061Z,12.80
2023-02-14T11:35:38.580Z,13.70
2023-02-14T11:40:40.819Z,11.90
2023-02-14T11:45:44.819Z,10.60
2023-02-14T11:51:06.643Z,10.30
2023-02-14T11:56:08.677Z,10.10
2023-02-14T12:01:21.181Z,7.50
2023-02-14T12:06:25.929Z,5.30
2023-02-14T12:11:30.517Z,7.00
2023-02-14T12:16:49.144Z,10.10
2023-02-14T12:22:02.168Z,7.20
2023-02-14T12:27:23.385Z,6.40
2023-02-14T12:32:31.426Z,7.20
2023-02-14T12:38:13.349Z,9.80
2023-02-14T12:43:43.250Z,7.30
2023-02-14T12:49:00.720Z,9.30
2023-02-14T12:54:20.915Z,9.10
2023-02-14T12:59:42.391Z,7.50
2023-02-14T13:04:44.791Z,8.00
2023-02-14T13:10:25.239Z,10.70
2023-02-14T13:15:53.141Z,8.50
2023-02-14T13:21:08.804Z,13.10
2023-02-14T13:26:27.322Z,10.90
2023-02-14T13:31:31.774Z,10.90
2023-02-14T13:36:34.317Z,10.20
2023-02-14T13:41:41.820Z,10.90
2023-02-14T13:46:51.388Z,10.80
2023-02-14T13:51:57.421Z,9.90
2023-02-14T13:57:28.264Z,11.40
2023-02-14T14:02:41.334Z,9.80
2023-02-14T14:07:43.615Z,10.40
2023-02-14T14:12:46.458Z,9.20
2023-02-14T14:18:11.418Z,11.50
2023-02-14T14:23:34.288Z,9.40
2023-02-14T14:28:36.250Z,9.80
2023-02-14T14:33:38.792Z,11.20
2023-02-14T14:38:49.416Z,10.90
2023-02-14T14:43:53.053Z,13.00
2023-02-14T14:48:56.665Z,9.30
2023-02-14T14:54:16.502Z,10.20
2023-02-14T14:59:22.505Z,13.00
2023-02-14T15:04:35.424Z,12.50
2023-02-14T15:09:37.729Z,10.90
2023-02-14T15:14:43.601Z,11.40
2023-02-14T15:19:54.126Z,12.30
2023-02-14T15:24:57.917Z,14.00
2023-02-14T15:30:23.235Z,14.50
2023-02-14T15:35:29.622Z,15.30
2023-02-14T15:40:36.211Z,15.60
2023-02-14T15:45:47.022Z,20.50
2023-02-14T15:50:55.606Z,18.10
2023-02-14T15:56:08.008Z,16.80
2023-02-14T16:01:10.396Z,18.80
2023-02-14T16:06:35.693Z,17.20
2023-02-14T16:11:38.533Z,16.20
2023-02-14T16:17:06.910Z,19.30
2023-02-14T16:22:23.897Z,16.10
2023-02-14T16:27:25.883Z,16.80
2023-02-14T16:32:28.284Z,17.00
2023-02-14T16:37:33.515Z,14.20
2023-02-14T16:42:39.618Z,15.40
2023-02-14T16:47:41.582Z,16.50
2023-02-14T16:52:46.892Z,21.90
2023-02-14T16:57:51.197Z,18.60
2023-02-14T17:03:04.485Z,22.40
2023-02-14T17:08:09.400Z,23.30
2023-02-14T17:13:12.422Z,23.10
2023-02-14T17:18:17.018Z,25.50
2023-02-14T17:23:20.180Z,25.30
2023-02-14T17:28:25.510Z,28.30
2023-02-14T17:33:32.578Z,28.80
2023-02-14T17:38:36.016Z,32.80
2023-02-14T17:43:37.984Z,32.10
2023-02-14T17:48:41.056Z,35.70
2023-02-14T17:53:43.401Z,34.60
2023-02-14T17:58:47.923Z,39.10
2023-02-14T18:03:52.028Z,37.20
2023-02-14T18:08:57.427Z,38.40
2023-02-14T18:13:59.839Z,36.30
2023-02-14T18:19:03.960Z,37.00
2023-02-14T18:24:07.096Z,33.50
2023-02-14T18:29:09.166Z,36.10
2023-02-14T18:34:11.798Z,46.20
2023-02-14T18:39:13.898Z,46.60
2023-02-14T18:44:15.729Z,46.80
2023-02-14T18:49:17.736Z,47.30
2023-02-14T18:54:19.693Z,52.00
2023-02-14T18:59:21.659Z,42.80
2023-02-14T19:04:23.776Z,41.00
2023-02-14T19:09:27.532Z,37.10
2023-02-14T19:14:29.444Z,39.90
2023-02-14T19:19:33.053Z,38.40
2023-02-14T19:24:35.957Z,35.80
2023-02-14T19:29:38.927Z,31.60
2023-02-14T19:34:41.364Z,36.10
2023-02-14T19:39:46.143Z,37.30
2023-02-14T19:44:50.403Z,37.60
2023-02-14T19:49:52.853Z,42.90
2023-02-14T19:54:59.393Z,49.50
2023-02-14T20:00:01.562Z,46.30
2023-02-14T20:05:16.362Z,49.80
2023-02-14T20:10:19.693Z,56.00
2023-02-14T20:15:21.958Z,52.60
2023-02-14T20:20:24.056Z,56.10
2023-02-14T20:25:26.321Z,50.90
2023-02-14T20:30:28.417Z,45.60
2023-02-14T20:35:34.154Z,50.40
2023-02-14T20:40:40.445Z,46.90
2023-02-14T20:45:43.234Z,41.80
2023-02-14T20:50:45.253Z,44.20
2023-02-14T20:55:51.695Z,40.90
2023-02-14T21:00:56.146Z,59.40
2023-02-14T21:05:58.920Z,39.10
2023-02-14T21:11:01.313Z,36.40
2023-02-14T21:16:15.829Z,40.00
2023-02-14T21:21:25.999Z,39.20
2023-02-14T21:26:29.117Z,40.40
2023-02-14T21:31:31.872Z,39.30
2023-02-14T21:36:37.422Z,46.60
2023-02-14T21:41:40.178Z,46.70
2023-02-14T21:46:42.653Z,54.20
2023-02-14T21:51:46.808Z,51.70
2023-02-14T21:56:49.786Z,49.50
2023-02-14T22:01:52.378Z,49.20
2023-02-14T22:06:54.417Z,48.70
2023-02-14T22:12:00.041Z,47.20
2023-02-14T22:17:06.015Z,51.80
2023-02-14T22:22:08.065Z,56.20
2023-02-14T22:27:10.075Z,55.90
2023-02-14T22:32:12.753Z,49.10
2023-02-14T22:37:14.811Z,30.40
2023-02-14T22:42:17.197Z,32.10
2023-02-14T22:47:19.239Z,36.60
2023-02-14T22:52:21.267Z,26.40
2023-02-14T22:57:23.570Z,26.70
2023-02-14T23:02:25.822Z,24.60
2023-02-14T23:07:28.535Z,24.50
2023-02-14T23:12:49.204Z,23.30
2023-02-14T23:18:10.228Z,23.20
2023-02-14T23:23:12.174Z,21.90
2023-02-14T23:28:14.129Z,21.40
2023-02-14T23:33:18.312Z,20.40
2023-02-14T23:38:22.520Z,22.80
2023-02-14T23:43:24.856Z,24.00
2023-02-14T23:48:26.790Z,24.10
2023-02-14T23:53:28.893Z,23.70
2023-02-14T23:58:31.023Z,28.20
